sensor_id;sensor_type;location;lat;lon;timestamp;temperature;humidity
32877;DHT22;19226;51.600;8.034;2024-03-23T00:54:15;9.00;99.90
32877;DHT22;19226;51.600;8.034;2024-03-23T00:57:00;9.00;99.90
32877;DHT22;19226;51.600;8.034;2024-03-23T00:59:44;9.00;99.90
32877;DHT22;19226;51.600;8.034;2024-03-23T01:02:29;8.90;99.90
32877;DHT22;19226;51.600;8.034;2024-03-23T01:05:13;8.90;99.90
32877;DHT22;19226;51.600;8.034;2024-03-23T01:07:58;8.90;99.90
32877;DHT22;19226;51.600;8.034;2024-03-23T01:10:43;8.80;99.90
32877;DHT22;19226;51.600;8.034;2024-03-23T01:13:28;8.80;99.90
32877;DHT22;19226;51.600;8.034;2024-03-23T01:16:13;8.90;99.90
32877;DHT22;19226;51.600;8.034;2024-03-23T01:18:57;8.80;99.90
32877;DHT22;19226;51.600;8.034;2024-03-23T01:21:42;8.80;99.90
32877;DHT22;19226;51.600;8.034;2024-03-23T01:24:28;8.80;99.90
32877;DHT22;19226;51.600;8.034;2024-03-23T01:27:13;8.80;99.90
32877;DHT22;19226;51.600;8.034;2024-03-23T01:29:59;8.80;99.90
32877;DHT22;19226;51.600;8.034;2024-03-23T01:32:43;8.70;99.90
32877;DHT22;19226;51.600;8.034;2024-03-23T01:35:28;8.60;99.90
32877;DHT22;19226;51.600;8.034;2024-03-23T01:38:12;8.70;99.90
32877;DHT22;19226;51.600;8.034;2024-03-23T01:41:00;8.70;99.90
32877;DHT22;19226;51.600;8.034;2024-03-23T01:43:45;8.70;99.90
32877;DHT22;19226;51.600;8.034;2024-03-23T01:46:30;8.70;99.90
32877;DHT22;19226;51.600;8.034;2024-03-23T01:49:15;8.70;99.90
32877;DHT22;19226;51.600;8.034;2024-03-23T01:52:00;8.60;99.90
32877;DHT22;19226;51.600;8.034;2024-03-23T01:54:45;8.60;99.90
32877;DHT22;19226;51.600;8.034;2024-03-23T01:57:30;8.60;99.90
32877;DHT22;19226;51.600;8.034;2024-03-23T02:00:14;8.70;99.90
32877;DHT22;19226;51.600;8.034;2024-03-23T02:02:58;8.60;99.90
32877;DHT22;19226;51.600;8.034;2024-03-23T02:05:43;8.60;99.90
32877;DHT22;19226;51.600;8.034;2024-03-23T02:08:28;8.60;99.90
32877;DHT22;19226;51.600;8.034;2024-03-23T02:11:13;8.60;99.90
32877;DHT22;19226;51.600;8.034;2024-03-23T02:13:58;8.60;99.90
32877;DHT22;19226;51.600;8.034;2024-03-23T02:16:43;8.60;99.90
32877;DHT22;19226;51.600;8.034;2024-03-23T02:19:27;8.60;99.90
32877;DHT22;19226;51.600;8.034;2024-03-23T02:22:12;8.60;99.90
32877;DHT22;19226;51.600;8.034;2024-03-23T02:24:57;8.50;99.90
32877;DHT22;19226;51.600;8.034;2024-03-23T02:27:41;8.40;99.90
32877;DHT22;19226;51.600;8.034;2024-03-23T02:30:27;8.50;99.90
32877;DHT22;19226;51.600;8.034;2024-03-23T02:33:11;8.50;99.90
32877;DHT22;19226;51.600;8.034;2024-03-23T02:35:56;8.40;99.90
32877;DHT22;19226;51.600;8.034;2024-03-23T02:38:42;8.40;99.90
32877;DHT22;19226;51.600;8.034;2024-03-23T02:41:26;8.40;99.90
32877;DHT22;19226;51.600;8.034;2024-03-23T02:44:11;8.40;99.90
32877;DHT22;19226;51.600;8.034;2024-03-23T02:46:58;8.40;99.90
32877;DHT22;19226;51.600;8.034;2024-03-23T02:49:43;8.40;99.90
32877;DHT22;19226;51.600;8.034;2024-03-23T02:52:27;8.30;99.90
32877;DHT22;19226;51.600;8.034;2024-03-23T02:55:12;8.30;99.90
32877;DHT22;19226;51.600;8.034;2024-03-23T02:57:57;8.30;99.90
32877;DHT22;19226;51.600;8.034;2024-03-23T03:00:46;8.20;99.90
32877;DHT22;19226;51.600;8.034;2024-03-23T03:03:30;8.20;99.90
32877;DHT22;19226;51.600;8.034;2024-03-23T03:06:23;8.20;99.90
32877;DHT22;19226;51.600;8.034;2024-03-23T03:09:07;8.20;99.90
32877;DHT22;19226;51.600;8.034;2024-03-23T03:11:52;8.20;99.90
32877;DHT22;19226;51.600;8.034;2024-03-23T03:14:37;8.20;99.90
32877;DHT22;19226;51.600;8.034;2024-03-23T03:17:22;8.20;99.90
32877;DHT22;19226;51.600;8.034;2024-03-23T03:20:08;8.20;99.90
32877;DHT22;19226;51.600;8.034;2024-03-23T03:22:57;8.10;99.90
32877;DHT22;19226;51.600;8.034;2024-03-23T03:25:42;8.00;99.90
32877;DHT22;19226;51.600;8.034;2024-03-23T03:28:26;8.00;99.90
32877;DHT22;19226;51.600;8.034;2024-03-23T03:31:18;8.00;99.90
32877;DHT22;19226;51.600;8.034;2024-03-23T03:34:02;8.00;99.90
32877;DHT22;19226;51.600;8.034;2024-03-23T03:36:47;7.90;99.90
32877;DHT22;19226;51.600;8.034;2024-03-23T03:39:31;7.90;99.90
32877;DHT22;19226;51.600;8.034;2024-03-23T03:42:16;7.90;99.90
32877;DHT22;19226;51.600;8.034;2024-03-23T03:45:01;7.90;99.90
32877;DHT22;19226;51.600;8.034;2024-03-23T03:47:45;7.80;99.90
32877;DHT22;19226;51.600;8.034;2024-03-23T03:50:30;7.80;99.90
32877;DHT22;19226;51.600;8.034;2024-03-23T03:53:14;7.70;99.90
32877;DHT22;19226;51.600;8.034;2024-03-23T03:56:02;7.80;99.90
32877;DHT22;19226;51.600;8.034;2024-03-23T03:58:47;7.70;99.90
32877;DHT22;19226;51.600;8.034;2024-03-23T04:01:31;7.60;99.90
32877;DHT22;19226;51.600;8.034;2024-03-23T04:04:16;7.50;99.90
32877;DHT22;19226;51.600;8.034;2024-03-23T04:07:01;7.50;99.90
32877;DHT22;19226;51.600;8.034;2024-03-23T04:09:46;7.50;99.90
32877;DHT22;19226;51.600;8.034;2024-03-23T04:12:30;7.50;99.90
32877;DHT22;19226;51.600;8.034;2024-03-23T04:15:15;7.40;99.90
32877;DHT22;19226;51.600;8.034;2024-03-23T04:17:59;7.40;99.90
32877;DHT22;19226;51.600;8.034;2024-03-23T04:20:51;7.40;99.90
32877;DHT22;19226;51.600;8.034;2024-03-23T04:23:36;7.40;99.90
32877;DHT22;19226;51.600;8.034;2024-03-23T04:26:20;7.50;99.90
32877;DHT22;19226;51.600;8.034;2024-03-23T04:29:05;7.40;99.90
32877;DHT22;19226;51.600;8.034;2024-03-23T04:31:49;7.50;99.90
32877;DHT22;19226;51.600;8.034;2024-03-23T04:34:34;7.50;99.90
32877;DHT22;19226;51.600;8.034;2024-03-23T04:37:18;7.50;99.90
32877;DHT22;19226;51.600;8.034;2024-03-23T04:40:04;7.50;99.90
32877;DHT22;19226;51.600;8.034;2024-03-23T04:42:50;7.50;99.90
32877;DHT22;19226;51.600;8.034;2024-03-23T04:45:36;7.50;99.90
32877;DHT22;19226;51.600;8.034;2024-03-23T04:48:22;7.50;99.90
32877;DHT22;19226;51.600;8.034;2024-03-23T04:51:06;7.40;99.90
32877;DHT22;19226;51.600;8.034;2024-03-23T04:53:51;7.40;99.90
32877;DHT22;19226;51.600;8.034;2024-03-23T04:56:36;7.40;99.90
32877;DHT22;19226;51.600;8.034;2024-03-23T04:59:21;7.40;99.90
32877;DHT22;19226;51.600;8.034;2024-03-23T05:02:05;7.40;99.90
32877;DHT22;19226;51.600;8.034;2024-03-23T05:04:49;7.40;99.90
32877;DHT22;19226;51.600;8.034;2024-03-23T05:07:34;7.40;99.90
32877;DHT22;19226;51.600;8.034;2024-03-23T05:10:18;7.40;99.90
32877;DHT22;19226;51.600;8.034;2024-03-23T05:13:03;7.40;99.90
32877;DHT22;19226;51.600;8.034;2024-03-23T05:15:56;7.30;99.90
32877;DHT22;19226;51.600;8.034;2024-03-23T05:18:41;7.30;99.90
32877;DHT22;19226;51.600;8.034;2024-03-23T05:21:26;7.30;99.90
32877;DHT22;19226;51.600;8.034;2024-03-23T05:24:11;7.30;99.90
32877;DHT22;19226;51.600;8.034;2024-03-23T05:26:56;7.20;99.90
32877;DHT22;19226;51.600;8.034;2024-03-23T05:29:45;7.30;99.90
32877;DHT22;19226;51.600;8.034;2024-03-23T05:32:35;7.20;99.90
32877;DHT22;19226;51.600;8.034;2024-03-23T05:35:20;7.20;99.90
32877;DHT22;19226;51.600;8.034;2024-03-23T05:38:04;7.20;99.90
32877;DHT22;19226;51.600;8.034;2024-03-23T05:40:57;7.20;99.90
32877;DHT22;19226;51.600;8.034;2024-03-23T05:43:42;7.30;99.90
32877;DHT22;19226;51.600;8.034;2024-03-23T05:46:27;7.30;99.90
32877;DHT22;19226;51.600;8.034;2024-03-23T05:49:11;7.20;99.90
32877;DHT22;19226;51.600;8.034;2024-03-23T05:51:56;7.30;99.90
32877;DHT22;19226;51.600;8.034;2024-03-23T05:54:40;7.20;99.90
32877;DHT22;19226;51.600;8.034;2024-03-23T05:57:25;7.10;99.90
32877;DHT22;19226;51.600;8.034;2024-03-23T06:00:10;7.20;99.90
32877;DHT22;19226;51.600;8.034;2024-03-23T06:03:00;7.20;99.90
32877;DHT22;19226;51.600;8.034;2024-03-23T06:05:44;7.20;99.90
32877;DHT22;19226;51.600;8.034;2024-03-23T06:08:29;7.20;99.90
32877;DHT22;19226;51.600;8.034;2024-03-23T06:11:14;7.20;99.90
32877;DHT22;19226;51.600;8.034;2024-03-23T06:13:58;7.20;99.90
32877;DHT22;19226;51.600;8.034;2024-03-23T06:16:43;7.20;99.90
32877;DHT22;19226;51.600;8.034;2024-03-23T06:19:27;7.20;99.90
32877;DHT22;19226;51.600;8.034;2024-03-23T06:22:12;7.20;99.90
32877;DHT22;19226;51.600;8.034;2024-03-23T06:24:57;7.20;99.90
32877;DHT22;19226;51.600;8.034;2024-03-23T06:27:42;7.20;99.90
32877;DHT22;19226;51.600;8.034;2024-03-23T06:30:26;7.10;99.90
32877;DHT22;19226;51.600;8.034;2024-03-23T06:33:11;7.10;99.90
32877;DHT22;19226;51.600;8.034;2024-03-23T06:35:55;7.10;99.90
32877;DHT22;19226;51.600;8.034;2024-03-23T06:38:40;7.00;99.90
32877;DHT22;19226;51.600;8.034;2024-03-23T06:41:25;7.00;99.90
32877;DHT22;19226;51.600;8.034;2024-03-23T06:44:10;7.10;99.90
32877;DHT22;19226;51.600;8.034;2024-03-23T06:46:55;7.10;99.90
32877;DHT22;19226;51.600;8.034;2024-03-23T06:49:40;7.10;99.90
32877;DHT22;19226;51.600;8.034;2024-03-23T06:52:24;7.10;99.90
32877;DHT22;19226;51.600;8.034;2024-03-23T06:55:09;7.10;99.90
32877;DHT22;19226;51.600;8.034;2024-03-23T06:57:53;7.20;99.90
32877;DHT22;19226;51.600;8.034;2024-03-23T07:00:37;7.20;99.90
32877;DHT22;19226;51.600;8.034;2024-03-23T07:03:22;7.20;99.90
32877;DHT22;19226;51.600;8.034;2024-03-23T07:06:10;7.30;99.90
32877;DHT22;19226;51.600;8.034;2024-03-23T07:08:54;7.20;99.90
32877;DHT22;19226;51.600;8.034;2024-03-23T07:11:39;7.20;99.90
32877;DHT22;19226;51.600;8.034;2024-03-23T07:14:24;7.30;99.90
32877;DHT22;19226;51.600;8.034;2024-03-23T07:17:08;7.30;99.90
32877;DHT22;19226;51.600;8.034;2024-03-23T07:19:52;7.30;99.90
32877;DHT22;19226;51.600;8.034;2024-03-23T07:22:37;7.40;99.90
32877;DHT22;19226;51.600;8.034;2024-03-23T07:25:21;7.40;99.90
32877;DHT22;19226;51.600;8.034;2024-03-23T07:28:07;7.40;99.90
32877;DHT22;19226;51.600;8.034;2024-03-23T07:31:08;7.40;99.90
32877;DHT22;19226;51.600;8.034;2024-03-23T07:33:53;7.40;99.90
32877;DHT22;19226;51.600;8.034;2024-03-23T07:36:38;7.50;99.90
32877;DHT22;19226;51.600;8.034;2024-03-23T07:39:22;7.50;99.90
32877;DHT22;19226;51.600;8.034;2024-03-23T07:42:06;7.50;99.90
32877;DHT22;19226;51.600;8.034;2024-03-23T07:44:51;7.50;99.90
32877;DHT22;19226;51.600;8.034;2024-03-23T07:47:35;7.60;99.90
32877;DHT22;19226;51.600;8.034;2024-03-23T07:50:20;7.60;99.90
32877;DHT22;19226;51.600;8.034;2024-03-23T07:53:06;7.70;99.90
32877;DHT22;19226;51.600;8.034;2024-03-23T07:56:08;7.80;99.90
32877;DHT22;19226;51.600;8.034;2024-03-23T07:58:56;7.90;99.90
32877;DHT22;19226;51.600;8.034;2024-03-23T08:01:46;8.10;99.90
32877;DHT22;19226;51.600;8.034;2024-03-23T08:04:31;8.20;99.90
32877;DHT22;19226;51.600;8.034;2024-03-23T08:07:16;8.30;99.90
32877;DHT22;19226;51.600;8.034;2024-03-23T08:10:03;8.40;99.90
32877;DHT22;19226;51.600;8.034;2024-03-23T08:12:54;8.50;99.90
32877;DHT22;19226;51.600;8.034;2024-03-23T08:15:38;8.60;99.90
32877;DHT22;19226;51.600;8.034;2024-03-23T08:18:24;8.60;99.90
32877;DHT22;19226;51.600;8.034;2024-03-23T08:21:10;8.70;99.90
32877;DHT22;19226;51.600;8.034;2024-03-23T08:23:54;8.80;99.90
32877;DHT22;19226;51.600;8.034;2024-03-23T08:26:39;8.90;99.90
32877;DHT22;19226;51.600;8.034;2024-03-23T08:29:24;9.00;99.90
32877;DHT22;19226;51.600;8.034;2024-03-23T08:32:08;9.10;99.90
32877;DHT22;19226;51.600;8.034;2024-03-23T08:34:53;9.10;99.90
32877;DHT22;19226;51.600;8.034;2024-03-23T08:37:37;9.20;99.90
32877;DHT22;19226;51.600;8.034;2024-03-23T08:40:22;9.30;99.90
32877;DHT22;19226;51.600;8.034;2024-03-23T08:43:06;9.30;99.90
32877;DHT22;19226;51.600;8.034;2024-03-23T08:45:51;9.40;99.90
32877;DHT22;19226;51.600;8.034;2024-03-23T08:48:44;9.60;99.90
32877;DHT22;19226;51.600;8.034;2024-03-23T08:51:30;9.70;99.90
32877;DHT22;19226;51.600;8.034;2024-03-23T08:54:15;9.80;99.90
32877;DHT22;19226;51.600;8.034;2024-03-23T08:57:00;9.90;99.90
32877;DHT22;19226;51.600;8.034;2024-03-23T08:59:44;10.00;99.90
32877;DHT22;19226;51.600;8.034;2024-03-23T09:02:29;10.10;99.90
32877;DHT22;19226;51.600;8.034;2024-03-23T09:05:13;10.10;99.90
32877;DHT22;19226;51.600;8.034;2024-03-23T09:07:58;10.20;99.90
32877;DHT22;19226;51.600;8.034;2024-03-23T09:10:43;10.20;99.90
32877;DHT22;19226;51.600;8.034;2024-03-23T09:13:28;10.20;99.90
32877;DHT22;19226;51.600;8.034;2024-03-23T09:16:12;10.20;99.90
32877;DHT22;19226;51.600;8.034;2024-03-23T09:18:57;10.20;99.90
32877;DHT22;19226;51.600;8.034;2024-03-23T09:21:41;10.10;99.90
32877;DHT22;19226;51.600;8.034;2024-03-23T09:24:26;10.00;99.90
32877;DHT22;19226;51.600;8.034;2024-03-23T09:27:10;10.10;99.90
32877;DHT22;19226;51.600;8.034;2024-03-23T09:29:55;10.20;99.90
32877;DHT22;19226;51.600;8.034;2024-03-23T09:32:43;10.20;99.90
32877;DHT22;19226;51.600;8.034;2024-03-23T09:35:27;10.20;99.90
32877;DHT22;19226;51.600;8.034;2024-03-23T09:38:12;10.10;99.90
32877;DHT22;19226;51.600;8.034;2024-03-23T09:40:57;10.10;99.90
32877;DHT22;19226;51.600;8.034;2024-03-23T09:43:42;10.10;99.90
32877;DHT22;19226;51.600;8.034;2024-03-23T09:46:27;10.20;99.90
32877;DHT22;19226;51.600;8.034;2024-03-23T09:49:13;10.30;99.90
32877;DHT22;19226;51.600;8.034;2024-03-23T09:51:57;10.30;99.90
32877;DHT22;19226;51.600;8.034;2024-03-23T09:54:42;10.40;99.90
32877;DHT22;19226;51.600;8.034;2024-03-23T09:57:27;10.40;99.90
32877;DHT22;19226;51.600;8.034;2024-03-23T10:00:12;10.50;99.90
32877;DHT22;19226;51.600;8.034;2024-03-23T10:02:57;10.70;99.90
32877;DHT22;19226;51.600;8.034;2024-03-23T10:05:45;10.90;99.90
32877;DHT22;19226;51.600;8.034;2024-03-23T10:08:30;11.00;99.90
32877;DHT22;19226;51.600;8.034;2024-03-23T10:11:16;11.00;99.90
32877;DHT22;19226;51.600;8.034;2024-03-23T10:14:01;10.90;99.90
32877;DHT22;19226;51.600;8.034;2024-03-23T10:16:45;11.00;99.90
32877;DHT22;19226;51.600;8.034;2024-03-23T10:19:33;11.10;99.90
32877;DHT22;19226;51.600;8.034;2024-03-23T10:22:22;11.20;99.90
32877;DHT22;19226;51.600;8.034;2024-03-23T10:25:11;11.20;99.90
32877;DHT22;19226;51.600;8.034;2024-03-23T10:27:59;11.20;99.90
32877;DHT22;19226;51.600;8.034;2024-03-23T10:30:45;11.10;99.90
32877;DHT22;19226;51.600;8.034;2024-03-23T10:33:29;11.00;99.90
32877;DHT22;19226;51.600;8.034;2024-03-23T10:36:15;10.80;99.90
32877;DHT22;19226;51.600;8.034;2024-03-23T10:39:00;10.70;99.90
32877;DHT22;19226;51.600;8.034;2024-03-23T10:41:46;10.50;99.90
32877;DHT22;19226;51.600;8.034;2024-03-23T10:44:31;10.40;99.90
32877;DHT22;19226;51.600;8.034;2024-03-23T10:47:16;10.40;99.90
32877;DHT22;19226;51.600;8.034;2024-03-23T10:50:00;10.50;99.90
32877;DHT22;19226;51.600;8.034;2024-03-23T10:52:48;10.60;99.90
32877;DHT22;19226;51.600;8.034;2024-03-23T10:55:34;10.80;99.90
32877;DHT22;19226;51.600;8.034;2024-03-23T10:58:26;10.90;99.90
32877;DHT22;19226;51.600;8.034;2024-03-23T11:01:12;11.00;99.90
32877;DHT22;19226;51.600;8.034;2024-03-23T11:03:57;11.10;99.90
32877;DHT22;19226;51.600;8.034;2024-03-23T11:06:41;11.10;99.90
32877;DHT22;19226;51.600;8.034;2024-03-23T11:09:38;11.30;99.90
32877;DHT22;19226;51.600;8.034;2024-03-23T11:15:11;11.60;99.90
32877;DHT22;19226;51.600;8.034;2024-03-23T11:18:07;11.70;99.90
32877;DHT22;19226;51.600;8.034;2024-03-23T11:20:56;11.80;99.90
32877;DHT22;19226;51.600;8.034;2024-03-23T11:23:41;11.90;99.90
32877;DHT22;19226;51.600;8.034;2024-03-23T11:26:25;11.90;99.90
32877;DHT22;19226;51.600;8.034;2024-03-23T11:29:11;11.90;99.90
32877;DHT22;19226;51.600;8.034;2024-03-23T11:31:56;11.80;99.90
32877;DHT22;19226;51.600;8.034;2024-03-23T11:34:40;11.80;99.90
32877;DHT22;19226;51.600;8.034;2024-03-23T11:37:24;11.90;99.90
32877;DHT22;19226;51.600;8.034;2024-03-23T11:40:19;11.90;99.90
32877;DHT22;19226;51.600;8.034;2024-03-23T11:43:08;11.80;99.90
32877;DHT22;19226;51.600;8.034;2024-03-23T11:45:54;11.80;99.90
32877;DHT22;19226;51.600;8.034;2024-03-23T11:48:50;11.70;99.90
32877;DHT22;19226;51.600;8.034;2024-03-23T11:51:36;11.60;99.90
32877;DHT22;19226;51.600;8.034;2024-03-23T11:54:24;11.60;99.90
32877;DHT22;19226;51.600;8.034;2024-03-23T11:57:16;11.60;99.90
32877;DHT22;19226;51.600;8.034;2024-03-23T12:00:01;11.60;99.90
32877;DHT22;19226;51.600;8.034;2024-03-23T12:02:46;11.60;99.90
32877;DHT22;19226;51.600;8.034;2024-03-23T12:05:32;11.50;99.90
32877;DHT22;19226;51.600;8.034;2024-03-23T12:08:18;11.20;99.90
32877;DHT22;19226;51.600;8.034;2024-03-23T12:11:07;10.70;99.90
32877;DHT22;19226;51.600;8.034;2024-03-23T12:13:52;10.30;99.90
32877;DHT22;19226;51.600;8.034;2024-03-23T12:16:36;10.00;99.90
32877;DHT22;19226;51.600;8.034;2024-03-23T12:19:21;9.80;99.90
32877;DHT22;19226;51.600;8.034;2024-03-23T12:22:06;9.40;99.90
32877;DHT22;19226;51.600;8.034;2024-03-23T12:24:51;9.20;99.90
32877;DHT22;19226;51.600;8.034;2024-03-23T12:27:36;9.20;99.90
32877;DHT22;19226;51.600;8.034;2024-03-23T12:30:20;9.30;99.90
32877;DHT22;19226;51.600;8.034;2024-03-23T12:33:05;9.30;99.90
32877;DHT22;19226;51.600;8.034;2024-03-23T12:35:50;9.50;99.90
32877;DHT22;19226;51.600;8.034;2024-03-23T12:38:35;9.60;99.90
32877;DHT22;19226;51.600;8.034;2024-03-23T12:41:19;9.70;99.90
32877;DHT22;19226;51.600;8.034;2024-03-23T12:44:04;9.80;99.90
32877;DHT22;19226;51.600;8.034;2024-03-23T12:46:49;10.00;99.90
32877;DHT22;19226;51.600;8.034;2024-03-23T12:49:33;10.10;99.90
32877;DHT22;19226;51.600;8.034;2024-03-23T12:52:17;10.20;99.90
32877;DHT22;19226;51.600;8.034;2024-03-23T12:55:04;10.40;99.90
32877;DHT22;19226;51.600;8.034;2024-03-23T12:57:51;10.60;99.90
32877;DHT22;19226;51.600;8.034;2024-03-23T13:00:36;10.70;99.90
32877;DHT22;19226;51.600;8.034;2024-03-23T13:03:20;10.90;99.90
32877;DHT22;19226;51.600;8.034;2024-03-23T13:06:05;11.00;99.90
32877;DHT22;19226;51.600;8.034;2024-03-23T13:08:51;11.20;99.90
32877;DHT22;19226;51.600;8.034;2024-03-23T13:11:38;11.40;99.90
32877;DHT22;19226;51.600;8.034;2024-03-23T13:14:23;11.60;99.90
32877;DHT22;19226;51.600;8.034;2024-03-23T13:17:08;11.70;99.90
32877;DHT22;19226;51.600;8.034;2024-03-23T13:19:53;11.80;99.90
32877;DHT22;19226;51.600;8.034;2024-03-23T13:22:38;12.00;99.90
32877;DHT22;19226;51.600;8.034;2024-03-23T13:25:23;12.10;99.90
32877;DHT22;19226;51.600;8.034;2024-03-23T13:28:07;12.20;99.90
32877;DHT22;19226;51.600;8.034;2024-03-23T13:30:54;12.20;99.90
32877;DHT22;19226;51.600;8.034;2024-03-23T13:33:39;12.10;99.90
32877;DHT22;19226;51.600;8.034;2024-03-23T13:36:26;11.90;99.90
32877;DHT22;19226;51.600;8.034;2024-03-23T13:39:11;11.30;99.90
32877;DHT22;19226;51.600;8.034;2024-03-23T13:41:56;11.00;99.90
32877;DHT22;19226;51.600;8.034;2024-03-23T13:44:41;10.90;99.90
32877;DHT22;19226;51.600;8.034;2024-03-23T13:47:25;10.90;99.90
32877;DHT22;19226;51.600;8.034;2024-03-23T13:50:10;10.90;99.90
32877;DHT22;19226;51.600;8.034;2024-03-23T13:52:55;10.80;99.90
32877;DHT22;19226;51.600;8.034;2024-03-23T13:55:46;10.90;99.90
32877;DHT22;19226;51.600;8.034;2024-03-23T13:58:32;10.80;99.90
32877;DHT22;19226;51.600;8.034;2024-03-23T14:01:20;10.70;99.90
32877;DHT22;19226;51.600;8.034;2024-03-23T14:04:04;10.80;99.90
32877;DHT22;19226;51.600;8.034;2024-03-23T14:06:49;10.60;99.90
32877;DHT22;19226;51.600;8.034;2024-03-23T14:09:34;10.70;99.90
32877;DHT22;19226;51.600;8.034;2024-03-23T14:12:18;10.90;99.90
32877;DHT22;19226;51.600;8.034;2024-03-23T14:15:06;11.00;99.90
32877;DHT22;19226;51.600;8.034;2024-03-23T14:17:51;11.00;99.90
32877;DHT22;19226;51.600;8.034;2024-03-23T14:20:36;10.80;99.90
32877;DHT22;19226;51.600;8.034;2024-03-23T14:23:20;10.50;99.90
32877;DHT22;19226;51.600;8.034;2024-03-23T14:26:05;10.00;99.90
32877;DHT22;19226;51.600;8.034;2024-03-23T14:28:49;9.60;99.90
32877;DHT22;19226;51.600;8.034;2024-03-23T14:31:34;9.20;99.90
32877;DHT22;19226;51.600;8.034;2024-03-23T14:34:19;9.20;99.90
32877;DHT22;19226;51.600;8.034;2024-03-23T14:37:04;9.00;99.90
32877;DHT22;19226;51.600;8.034;2024-03-23T14:39:49;9.10;99.90
32877;DHT22;19226;51.600;8.034;2024-03-23T14:42:34;9.30;99.90
32877;DHT22;19226;51.600;8.034;2024-03-23T14:45:18;9.50;99.90
32877;DHT22;19226;51.600;8.034;2024-03-23T14:48:03;9.70;99.90
32877;DHT22;19226;51.600;8.034;2024-03-23T14:50:56;9.90;99.90
32877;DHT22;19226;51.600;8.034;2024-03-23T14:53:44;10.00;99.90
32877;DHT22;19226;51.600;8.034;2024-03-23T14:56:29;10.20;99.90
32877;DHT22;19226;51.600;8.034;2024-03-23T14:59:14;10.30;99.90
32877;DHT22;19226;51.600;8.034;2024-03-23T15:01:58;10.50;99.90
32877;DHT22;19226;51.600;8.034;2024-03-23T15:04:43;10.60;99.90
32877;DHT22;19226;51.600;8.034;2024-03-23T15:07:47;10.50;99.90
32877;DHT22;19226;51.600;8.034;2024-03-23T15:10:35;10.40;99.90
32877;DHT22;19226;51.600;8.034;2024-03-23T15:13:22;10.60;99.90
32877;DHT22;19226;51.600;8.034;2024-03-23T15:16:07;10.80;99.90
32877;DHT22;19226;51.600;8.034;2024-03-23T15:18:51;10.80;99.90
32877;DHT22;19226;51.600;8.034;2024-03-23T15:21:36;11.00;99.90
32877;DHT22;19226;51.600;8.034;2024-03-23T15:24:20;11.10;99.90
32877;DHT22;19226;51.600;8.034;2024-03-23T15:27:05;11.20;99.90
32877;DHT22;19226;51.600;8.034;2024-03-23T15:29:51;11.30;99.90
32877;DHT22;19226;51.600;8.034;2024-03-23T15:32:36;11.40;99.90
32877;DHT22;19226;51.600;8.034;2024-03-23T15:35:21;11.60;99.90
32877;DHT22;19226;51.600;8.034;2024-03-23T15:38:08;11.80;99.90
32877;DHT22;19226;51.600;8.034;2024-03-23T15:40:54;11.90;99.90
32877;DHT22;19226;51.600;8.034;2024-03-23T15:43:39;12.00;99.90
32877;DHT22;19226;51.600;8.034;2024-03-23T15:46:49;12.00;99.90
32877;DHT22;19226;51.600;8.034;2024-03-23T15:49:33;12.10;99.90
32877;DHT22;19226;51.600;8.034;2024-03-23T15:52:18;12.20;99.90
32877;DHT22;19226;51.600;8.034;2024-03-23T15:55:03;12.20;99.90
32877;DHT22;19226;51.600;8.034;2024-03-23T15:57:51;12.20;99.90
32877;DHT22;19226;51.600;8.034;2024-03-23T16:00:36;12.00;99.90
32877;DHT22;19226;51.600;8.034;2024-03-23T16:03:21;11.80;99.90
32877;DHT22;19226;51.600;8.034;2024-03-23T16:06:06;11.70;99.90
32877;DHT22;19226;51.600;8.034;2024-03-23T16:08:52;11.40;99.90
32877;DHT22;19226;51.600;8.034;2024-03-23T16:11:40;11.30;99.90
32877;DHT22;19226;51.600;8.034;2024-03-23T16:14:24;11.20;99.90
32877;DHT22;19226;51.600;8.034;2024-03-23T16:17:09;11.10;99.90
32877;DHT22;19226;51.600;8.034;2024-03-23T16:19:53;11.00;99.90
32877;DHT22;19226;51.600;8.034;2024-03-23T16:22:38;11.00;99.90
32877;DHT22;19226;51.600;8.034;2024-03-23T16:25:22;10.90;99.90
32877;DHT22;19226;51.600;8.034;2024-03-23T16:28:08;10.70;99.90
32877;DHT22;19226;51.600;8.034;2024-03-23T16:31:09;10.60;99.90
32877;DHT22;19226;51.600;8.034;2024-03-23T16:33:54;10.60;99.90
32877;DHT22;19226;51.600;8.034;2024-03-23T16:36:38;10.70;99.90
32877;DHT22;19226;51.600;8.034;2024-03-23T16:39:23;10.70;99.90
32877;DHT22;19226;51.600;8.034;2024-03-23T16:42:07;10.60;99.90
32877;DHT22;19226;51.600;8.034;2024-03-23T16:44:51;10.50;99.90
32877;DHT22;19226;51.600;8.034;2024-03-23T16:47:36;10.50;99.90
32877;DHT22;19226;51.600;8.034;2024-03-23T16:50:20;10.40;99.90
32877;DHT22;19226;51.600;8.034;2024-03-23T16:53:05;10.20;99.90
32877;DHT22;19226;51.600;8.034;2024-03-23T16:55:57;10.10;99.90
32877;DHT22;19226;51.600;8.034;2024-03-23T16:58:42;10.00;99.90
32877;DHT22;19226;51.600;8.034;2024-03-23T17:01:26;9.90;99.90
32877;DHT22;19226;51.600;8.034;2024-03-23T17:04:11;9.80;99.90
32877;DHT22;19226;51.600;8.034;2024-03-23T17:06:56;9.70;99.90
32877;DHT22;19226;51.600;8.034;2024-03-23T17:09:46;9.60;99.90
32877;DHT22;19226;51.600;8.034;2024-03-23T17:12:31;9.60;99.90
32877;DHT22;19226;51.600;8.034;2024-03-23T17:15:16;9.50;99.90
32877;DHT22;19226;51.600;8.034;2024-03-23T17:18:05;9.50;99.90
32877;DHT22;19226;51.600;8.034;2024-03-23T17:20:51;9.30;99.90
32877;DHT22;19226;51.600;8.034;2024-03-23T17:23:35;9.20;99.90
32877;DHT22;19226;51.600;8.034;2024-03-23T17:26:20;9.20;99.90
32877;DHT22;19226;51.600;8.034;2024-03-23T17:29:04;9.10;99.90
32877;DHT22;19226;51.600;8.034;2024-03-23T17:31:52;9.10;99.90
32877;DHT22;19226;51.600;8.034;2024-03-23T17:34:36;9.10;99.90
32877;DHT22;19226;51.600;8.034;2024-03-23T17:37:21;9.00;99.90
32877;DHT22;19226;51.600;8.034;2024-03-23T17:40:07;9.00;99.90
32877;DHT22;19226;51.600;8.034;2024-03-23T17:42:52;8.90;99.90
32877;DHT22;19226;51.600;8.034;2024-03-23T17:45:36;8.90;99.90
32877;DHT22;19226;51.600;8.034;2024-03-23T17:48:21;8.80;99.90
32877;DHT22;19226;51.600;8.034;2024-03-23T17:51:05;8.70;99.90
32877;DHT22;19226;51.600;8.034;2024-03-23T17:53:50;8.70;99.90
32877;DHT22;19226;51.600;8.034;2024-03-23T17:56:34;8.70;99.90
32877;DHT22;19226;51.600;8.034;2024-03-23T17:59:22;8.60;99.90
32877;DHT22;19226;51.600;8.034;2024-03-23T18:02:10;8.60;99.90
32877;DHT22;19226;51.600;8.034;2024-03-23T18:04:55;8.50;99.90
32877;DHT22;19226;51.600;8.034;2024-03-23T18:07:39;8.40;99.90
32877;DHT22;19226;51.600;8.034;2024-03-23T18:10:24;8.40;99.90
32877;DHT22;19226;51.600;8.034;2024-03-23T18:13:09;8.40;99.90
32877;DHT22;19226;51.600;8.034;2024-03-23T18:15:57;8.40;99.90
32877;DHT22;19226;51.600;8.034;2024-03-23T18:18:41;8.30;99.90
32877;DHT22;19226;51.600;8.034;2024-03-23T18:21:26;8.30;99.90
32877;DHT22;19226;51.600;8.034;2024-03-23T18:24:10;8.20;99.90
32877;DHT22;19226;51.600;8.034;2024-03-23T18:26:55;8.00;99.90
32877;DHT22;19226;51.600;8.034;2024-03-23T18:29:40;7.80;99.90
32877;DHT22;19226;51.600;8.034;2024-03-23T18:32:25;7.60;99.90